createdAt,value
2023-10-10T00:01:15.222Z,12.50
2023-10-10T00:03:50.126Z,12.50
2023-10-10T00:06:25.387Z,12.50
2023-10-10T00:09:06.467Z,12.40
2023-10-10T00:11:56.892Z,12.40
2023-10-10T00:14:34.738Z,12.40
2023-10-10T00:17:09.922Z,12.30
2023-10-10T00:19:57.363Z,12.30
2023-10-10T00:22:35.666Z,12.20
2023-10-10T00:25:18.960Z,12.20
2023-10-10T00:34:13.049Z,12.40
2023-10-10T00:37:48.913Z,12.40
2023-10-10T00:40:27.909Z,12.40
2023-10-10T00:42:58.914Z,12.50
2023-10-10T00:45:32.764Z,12.50
2023-10-10T00:48:00.983Z,12.50
2023-10-10T00:50:34.779Z,12.40
2023-10-10T00:53:12.136Z,12.40
2023-10-10T00:55:41.997Z,12.40
2023-10-10T00:58:13.556Z,12.30
2023-10-10T01:00:46.177Z,12.20
2023-10-10T01:03:31.222Z,12.10
2023-10-10T01:06:00.256Z,12.00
2023-10-10T01:08:27.470Z,12.00
2023-10-10T01:11:05.234Z,11.90
2023-10-10T01:13:35.175Z,11.90
2023-10-10T01:18:58.878Z,12.00
2023-10-10T01:21:31.461Z,12.00
2023-10-10T01:24:08.431Z,12.10
2023-10-10T01:26:44.977Z,12.10
2023-10-10T01:29:26.000Z,12.10
2023-10-10T01:31:54.089Z,12.10
2023-10-10T01:34:31.536Z,12.00
2023-10-10T01:37:29.523Z,11.90
2023-10-10T01:40:16.781Z,11.90
2023-10-10T01:42:59.857Z,11.90
2023-10-10T01:45:30.332Z,11.90
2023-10-10T01:48:08.655Z,11.80
2023-10-10T01:50:38.549Z,11.70
2023-10-10T01:53:10.294Z,11.70
2023-10-10T01:55:42.518Z,11.60
2023-10-10T01:58:12.730Z,11.60
2023-10-10T02:00:46.881Z,11.60
2023-10-10T02:03:18.409Z,11.60
2023-10-10T02:05:51.565Z,11.60
2023-10-10T02:08:22.771Z,11.60
2023-10-10T02:10:50.421Z,11.70
2023-10-10T02:13:17.675Z,11.60
2023-10-10T02:15:44.518Z,11.60
2023-10-10T02:18:14.740Z,11.60
2023-10-10T02:20:47.431Z,11.60
2023-10-10T02:23:24.663Z,11.60
2023-10-10T02:25:56.010Z,11.50
2023-10-10T02:28:44.060Z,11.50
2023-10-10T02:34:10.265Z,11.50
2023-10-10T02:36:41.418Z,11.50
2023-10-10T02:39:17.559Z,11.50
2023-10-10T02:41:50.322Z,11.60
2023-10-10T02:47:54.397Z,11.50
2023-10-10T02:50:51.660Z,11.40
2023-10-10T02:53:20.116Z,11.40
2023-10-10T02:55:52.749Z,11.30
2023-10-10T02:58:22.589Z,11.30
2023-10-10T03:00:59.061Z,11.20
2023-10-10T03:03:26.299Z,11.20
2023-10-10T03:08:52.334Z,11.20
2023-10-10T03:11:36.478Z,11.20
2023-10-10T03:14:19.498Z,11.10
2023-10-10T03:17:10.394Z,11.00
2023-10-10T03:19:41.561Z,11.00
2023-10-10T03:22:26.741Z,11.00
2023-10-10T03:25:21.875Z,11.00
2023-10-10T03:27:54.912Z,11.00
2023-10-10T03:30:52.604Z,11.00
2023-10-10T03:33:44.736Z,11.00
2023-10-10T03:36:20.042Z,11.00
2023-10-10T03:38:48.767Z,11.00
2023-10-10T03:41:23.613Z,10.90
2023-10-10T03:44:10.610Z,11.00
2023-10-10T03:46:56.021Z,11.00
2023-10-10T03:49:44.811Z,10.90
2023-10-10T03:52:30.639Z,10.90
2023-10-10T03:55:25.339Z,10.90
2023-10-10T03:58:15.764Z,11.00
2023-10-10T04:01:00.987Z,11.00
2023-10-10T04:03:46.361Z,11.00
2023-10-10T04:06:31.919Z,11.10
2023-10-10T04:09:17.825Z,11.10
2023-10-10T04:12:03.142Z,11.10
2023-10-10T04:14:51.272Z,11.10
2023-10-10T04:17:37.166Z,11.10
2023-10-10T04:20:23.102Z,11.10
2023-10-10T04:23:14.180Z,11.20
2023-10-10T04:26:00.780Z,11.20
2023-10-10T04:28:46.231Z,11.20
2023-10-10T04:31:36.950Z,11.20
2023-10-10T04:40:12.831Z,11.20
2023-10-10T04:46:11.833Z,11.20
2023-10-10T04:49:01.519Z,11.30
2023-10-10T04:51:48.974Z,11.20
2023-10-10T04:54:34.364Z,11.20
2023-10-10T04:57:22.171Z,11.10
2023-10-10T05:00:09.413Z,11.10
2023-10-10T05:02:55.168Z,11.00
2023-10-10T05:05:40.787Z,11.00
2023-10-10T05:08:28.752Z,10.90
2023-10-10T05:11:16.174Z,10.80
2023-10-10T05:14:08.491Z,10.70
2023-10-10T05:16:53.843Z,10.50
2023-10-10T05:19:42.953Z,10.40
2023-10-10T05:22:28.220Z,10.40
2023-10-10T05:25:08.324Z,10.30
2023-10-10T05:27:41.855Z,10.30
2023-10-10T05:30:23.607Z,10.40
2023-10-10T05:33:07.261Z,10.40
2023-10-10T05:35:41.806Z,10.30
2023-10-10T05:38:09.167Z,10.30
2023-10-10T05:40:43.867Z,10.40
2023-10-10T05:43:15.931Z,10.50
2023-10-10T05:45:45.998Z,10.50
2023-10-10T05:48:15.965Z,10.50
2023-10-10T05:50:43.059Z,10.50
2023-10-10T05:53:12.261Z,10.60
2023-10-10T05:55:40.740Z,10.50
2023-10-10T05:58:08.992Z,10.50
2023-10-10T06:00:36.995Z,10.60
2023-10-10T06:03:07.625Z,10.60
2023-10-10T06:05:35.411Z,10.60
2023-10-10T06:08:06.303Z,10.60
2023-10-10T06:10:33.592Z,10.60
2023-10-10T06:13:07.352Z,10.60
2023-10-10T06:15:35.421Z,10.50
2023-10-10T06:18:25.975Z,10.60
2023-10-10T06:21:08.730Z,10.50
2023-10-10T06:23:36.831Z,10.50
2023-10-10T06:26:06.768Z,10.50
2023-10-10T06:28:36.784Z,10.50
2023-10-10T06:31:10.576Z,10.60
2023-10-10T06:33:41.377Z,10.60
2023-10-10T06:36:23.391Z,10.70
2023-10-10T06:39:15.555Z,10.80
2023-10-10T06:41:54.968Z,10.90
2023-10-10T06:44:36.402Z,10.90
2023-10-10T06:47:15.934Z,10.90
2023-10-10T06:49:54.563Z,11.00
2023-10-10T06:52:23.918Z,11.00
2023-10-10T06:54:55.271Z,11.10
2023-10-10T06:57:42.633Z,11.20
2023-10-10T07:00:43.198Z,11.30
2023-10-10T07:03:12.952Z,11.50
2023-10-10T07:05:46.577Z,11.50
2023-10-10T07:08:14.035Z,11.60
2023-10-10T07:10:42.656Z,11.80
2023-10-10T07:13:14.386Z,11.90
2023-10-10T07:15:55.210Z,12.00
2023-10-10T07:18:24.855Z,12.10
2023-10-10T07:21:17.982Z,12.20
2023-10-10T07:24:13.773Z,12.30
2023-10-10T07:26:42.384Z,12.50
2023-10-10T07:29:30.752Z,12.60
2023-10-10T07:32:16.948Z,12.70
2023-10-10T07:34:54.811Z,12.80
2023-10-10T07:37:28.464Z,12.90
2023-10-10T07:39:55.955Z,13.10
2023-10-10T07:42:36.784Z,13.20
2023-10-10T07:45:15.665Z,13.40
2023-10-10T07:47:57.904Z,13.50
2023-10-10T07:50:34.969Z,13.70
2023-10-10T07:53:05.151Z,13.80
2023-10-10T07:56:01.377Z,14.10
2023-10-10T07:58:51.772Z,14.30
2023-10-10T08:01:20.218Z,14.50
2023-10-10T08:03:48.891Z,14.70
2023-10-10T08:09:13.969Z,15.00
2023-10-10T08:11:45.128Z,15.30
2023-10-10T08:14:22.291Z,15.50
2023-10-10T08:17:00.214Z,15.70
2023-10-10T08:19:33.862Z,15.90
2023-10-10T08:22:26.215Z,16.20
2023-10-10T08:24:55.428Z,16.40
2023-10-10T08:27:26.584Z,16.60
2023-10-10T08:29:53.577Z,16.80
2023-10-10T08:32:26.978Z,17.00
2023-10-10T08:34:58.983Z,17.20
2023-10-10T08:37:32.333Z,17.40
2023-10-10T08:40:19.984Z,17.50
2023-10-10T08:42:52.004Z,17.70
2023-10-10T08:45:41.601Z,17.90
2023-10-10T08:48:16.201Z,18.10
2023-10-10T08:50:47.294Z,18.30
2023-10-10T08:53:14.682Z,18.50
2023-10-10T08:55:42.109Z,18.60
2023-10-10T08:58:11.087Z,18.80
2023-10-10T09:00:38.138Z,18.90
2023-10-10T09:03:08.260Z,19.10
2023-10-10T09:05:36.536Z,19.30
2023-10-10T09:08:14.744Z,19.50
2023-10-10T09:10:43.881Z,19.60
2023-10-10T09:13:14.005Z,19.80
2023-10-10T09:15:57.317Z,19.80
2023-10-10T09:18:26.178Z,20.00
2023-10-10T09:20:56.273Z,20.10
2023-10-10T09:23:35.450Z,20.30
2023-10-10T09:26:32.419Z,20.30
2023-10-10T09:29:15.669Z,20.50
2023-10-10T09:34:43.112Z,20.80
2023-10-10T09:37:18.056Z,20.90
2023-10-10T09:39:56.108Z,21.10
2023-10-10T09:43:17.010Z,21.20
2023-10-10T09:46:02.147Z,21.30
2023-10-10T09:48:50.724Z,21.40
2023-10-10T09:51:39.197Z,21.40
2023-10-10T09:54:19.224Z,21.50
2023-10-10T09:56:48.493Z,21.60
2023-10-10T09:59:16.885Z,21.70
2023-10-10T10:01:46.834Z,21.80
2023-10-10T10:04:25.358Z,22.10
2023-10-10T10:07:05.995Z,22.20
2023-10-10T10:09:53.207Z,22.40
2023-10-10T10:13:00.206Z,22.50
2023-10-10T10:15:51.056Z,22.60
2023-10-10T10:18:30.053Z,22.70
2023-10-10T10:21:09.589Z,22.60
2023-10-10T10:23:56.919Z,22.80
2023-10-10T10:26:42.588Z,22.80
2023-10-10T10:29:26.935Z,22.90
2023-10-10T10:32:20.219Z,23.10
2023-10-10T10:34:51.385Z,23.30
2023-10-10T10:37:28.681Z,23.30
2023-10-10T10:40:14.641Z,23.40
2023-10-10T10:42:50.933Z,23.40
2023-10-10T10:45:38.538Z,23.40
2023-10-10T10:48:36.277Z,23.40
2023-10-10T10:51:24.716Z,23.40
2023-10-10T10:53:58.908Z,23.50
2023-10-10T10:56:31.666Z,23.70
2023-10-10T10:59:24.410Z,23.80
2023-10-10T11:01:53.040Z,23.70
2023-10-10T11:04:35.181Z,23.50
2023-10-10T11:09:55.054Z,23.30
2023-10-10T11:12:32.099Z,23.20
2023-10-10T11:15:05.421Z,23.30
2023-10-10T11:17:38.575Z,23.40
2023-10-10T11:20:48.887Z,23.20
2023-10-10T11:23:46.572Z,23.20
2023-10-10T11:26:19.468Z,23.10
2023-10-10T11:28:50.680Z,23.20
2023-10-10T11:31:24.990Z,23.20
2023-10-10T11:34:11.219Z,23.10
2023-10-10T11:36:40.146Z,23.10
2023-10-10T11:39:35.528Z,23.20
2023-10-10T11:42:05.817Z,23.30
2023-10-10T11:44:37.990Z,23.40
2023-10-10T11:47:07.753Z,23.40
2023-10-10T11:49:36.213Z,23.40
2023-10-10T11:52:18.388Z,23.50
2023-10-10T11:54:49.354Z,23.60
2023-10-10T11:57:16.091Z,23.70
2023-10-10T11:59:47.428Z,23.90
2023-10-10T12:02:29.789Z,24.00
2023-10-10T12:04:59.274Z,24.00
2023-10-10T12:07:26.715Z,24.00
2023-10-10T12:10:09.166Z,24.20
2023-10-10T12:12:35.877Z,24.30
2023-10-10T12:17:56.088Z,24.40
2023-10-10T12:20:27.029Z,24.60
2023-10-10T12:22:55.478Z,24.50
2023-10-10T12:25:24.503Z,24.40
2023-10-10T12:27:55.363Z,24.40
2023-10-10T12:30:25.542Z,24.30
2023-10-10T12:32:52.496Z,24.40
2023-10-10T12:38:21.136Z,24.40
2023-10-10T12:40:52.423Z,24.40
2023-10-10T12:43:24.925Z,24.40
2023-10-10T12:45:54.763Z,24.40
2023-10-10T12:48:27.288Z,24.40
2023-10-10T12:51:01.513Z,24.40
2023-10-10T12:53:33.034Z,24.50
2023-10-10T12:56:03.844Z,24.50
2023-10-10T12:58:37.898Z,24.50
2023-10-10T13:01:06.266Z,24.60
2023-10-10T13:03:33.253Z,24.60
2023-10-10T13:06:03.363Z,24.70
2023-10-10T13:08:48.846Z,24.70
2023-10-10T13:11:32.972Z,24.70
2023-10-10T13:14:15.290Z,24.60
2023-10-10T13:16:48.156Z,24.80
2023-10-10T13:19:18.850Z,25.00
2023-10-10T13:21:53.080Z,25.10
2023-10-10T13:24:25.520Z,25.10
2023-10-10T13:26:52.297Z,25.10
2023-10-10T13:29:20.271Z,25.20
2023-10-10T13:31:49.646Z,25.10
2023-10-10T13:34:19.106Z,24.90
2023-10-10T13:36:47.317Z,24.80
2023-10-10T13:39:33.776Z,24.80
2023-10-10T13:42:07.073Z,24.80
2023-10-10T13:44:39.479Z,24.70
2023-10-10T13:47:08.655Z,24.80
2023-10-10T13:49:44.720Z,25.00
2023-10-10T13:52:21.249Z,25.20
2023-10-10T13:54:53.488Z,25.20
2023-10-10T13:57:46.712Z,25.40
2023-10-10T14:00:34.042Z,25.50
2023-10-10T14:03:04.165Z,25.60
2023-10-10T14:05:38.268Z,25.50
2023-10-10T14:08:18.129Z,25.60
2023-10-10T14:10:50.577Z,25.70
2023-10-10T14:13:20.903Z,25.70
2023-10-10T14:15:55.252Z,25.80
2023-10-10T14:18:50.606Z,26.00
2023-10-10T14:21:26.089Z,26.10
2023-10-10T14:24:08.961Z,26.10
2023-10-10T14:26:42.665Z,26.00
2023-10-10T14:29:12.717Z,26.10
2023-10-10T14:31:44.282Z,25.90
2023-10-10T14:34:25.053Z,25.90
2023-10-10T14:36:53.989Z,26.00
2023-10-10T14:39:36.760Z,26.10
2023-10-10T14:42:04.716Z,26.20
2023-10-10T14:44:32.317Z,26.10
2023-10-10T14:47:21.242Z,25.70
2023-10-10T14:49:54.505Z,25.50
2023-10-10T14:52:21.557Z,25.40
2023-10-10T14:54:54.715Z,25.20
2023-10-10T14:57:30.210Z,25.10
2023-10-10T14:59:57.396Z,25.10
2023-10-10T15:02:26.882Z,25.00
2023-10-10T15:04:59.212Z,25.00
2023-10-10T15:10:45.957Z,25.00
2023-10-10T15:13:15.822Z,25.20
2023-10-10T15:15:46.242Z,25.30
2023-10-10T15:18:15.180Z,25.30
2023-10-10T15:20:49.177Z,25.30
2023-10-10T15:23:23.202Z,25.30
2023-10-10T15:25:56.432Z,25.30
2023-10-10T15:28:24.429Z,25.20
2023-10-10T15:30:53.646Z,25.20
2023-10-10T15:33:22.898Z,25.10
2023-10-10T15:35:55.029Z,25.00
2023-10-10T15:38:23.529Z,24.90
2023-10-10T15:40:52.757Z,24.70
2023-10-10T15:43:32.245Z,24.60
2023-10-10T15:46:07.382Z,24.50
2023-10-10T15:48:43.296Z,24.40
2023-10-10T15:51:15.182Z,24.20
2023-10-10T15:53:46.196Z,24.10
2023-10-10T15:56:27.540Z,24.00
2023-10-10T15:59:01.428Z,23.80
2023-10-10T16:01:31.153Z,23.70
2023-10-10T16:04:06.085Z,23.60
2023-10-10T16:06:34.860Z,23.50
2023-10-10T16:09:12.576Z,23.40
2023-10-10T16:11:41.895Z,23.30
2023-10-10T16:22:46.929Z,22.70
2023-10-10T16:25:13.857Z,22.50
2023-10-10T16:27:43.426Z,22.30
2023-10-10T16:30:17.303Z,22.00
2023-10-10T16:32:50.159Z,21.80
2023-10-10T16:35:20.996Z,21.50
2023-10-10T16:37:50.803Z,21.30
2023-10-10T16:40:18.862Z,21.00
2023-10-10T16:42:47.916Z,20.80
2023-10-10T16:45:17.413Z,20.60
2023-10-10T16:47:45.196Z,20.40
2023-10-10T16:50:12.075Z,20.20
2023-10-10T16:52:42.101Z,20.00
2023-10-10T16:55:13.334Z,19.80
2023-10-10T16:57:40.949Z,19.60
2023-10-10T17:00:14.020Z,19.50
2023-10-10T17:02:48.196Z,19.30
2023-10-10T17:05:28.411Z,19.20
2023-10-10T17:07:56.863Z,19.00
2023-10-10T17:10:32.939Z,18.80
2023-10-10T17:13:01.589Z,18.70
2023-10-10T17:15:51.693Z,18.60
2023-10-10T17:18:21.112Z,18.50
2023-10-10T17:21:20.765Z,18.30
2023-10-10T17:29:59.292Z,18.00
2023-10-10T17:32:56.450Z,17.90
2023-10-10T17:38:45.102Z,17.60
2023-10-10T17:41:27.983Z,17.40
2023-10-10T17:44:26.724Z,17.30
2023-10-10T17:47:08.627Z,17.10
2023-10-10T17:49:38.145Z,17.00
2023-10-10T17:52:04.950Z,17.00
2023-10-10T17:54:33.485Z,16.90
2023-10-10T17:57:13.015Z,17.00
2023-10-10T17:59:45.695Z,17.00
2023-10-10T18:02:12.477Z,17.00
2023-10-10T18:04:42.366Z,17.00
2023-10-10T18:07:21.936Z,17.10
2023-10-10T18:09:54.664Z,17.10
2023-10-10T18:12:23.186Z,17.10
2023-10-10T18:14:53.947Z,17.10
2023-10-10T18:17:27.982Z,17.10
2023-10-10T18:20:00.985Z,17.00
2023-10-10T18:22:31.014Z,17.00
2023-10-10T18:25:00.668Z,16.90
2023-10-10T18:27:27.370Z,16.90
2023-10-10T18:29:58.424Z,16.70
2023-10-10T18:32:25.240Z,16.60
2023-10-10T18:34:56.318Z,16.50
2023-10-10T18:37:24.197Z,16.40
2023-10-10T18:39:54.536Z,16.30
2023-10-10T18:42:22.257Z,16.30
2023-10-10T18:44:52.621Z,16.20
2023-10-10T18:47:19.336Z,16.10
2023-10-10T18:49:45.996Z,16.00
2023-10-10T18:52:12.990Z,15.90
2023-10-10T18:54:42.007Z,15.80
2023-10-10T18:57:13.334Z,15.70
2023-10-10T18:59:43.715Z,15.60
2023-10-10T19:02:11.878Z,15.50
2023-10-10T19:04:40.237Z,15.40
2023-10-10T19:07:08.499Z,15.40
2023-10-10T19:09:42.924Z,15.30
2023-10-10T19:12:16.609Z,15.20
2023-10-10T19:14:47.086Z,15.10
2023-10-10T19:17:14.937Z,15.00
2023-10-10T19:19:42.547Z,14.90
2023-10-10T19:22:12.571Z,14.90
2023-10-10T19:24:40.390Z,14.90
2023-10-10T19:27:10.753Z,14.90
2023-10-10T19:29:38.520Z,14.90
2023-10-10T19:32:10.151Z,14.90
2023-10-10T19:34:37.010Z,14.90
2023-10-10T19:37:04.910Z,14.80
2023-10-10T19:39:48.529Z,14.80
2023-10-10T19:42:20.099Z,14.70
2023-10-10T19:48:16.025Z,14.70
2023-10-10T19:50:44.111Z,14.60
2023-10-10T19:53:16.101Z,14.60
2023-10-10T19:56:00.391Z,14.50
2023-10-10T20:01:34.114Z,14.40
2023-10-10T20:04:01.182Z,14.30
2023-10-10T20:06:58.878Z,14.30
2023-10-10T20:09:25.984Z,14.20
2023-10-10T20:12:19.656Z,14.20
2023-10-10T20:15:03.442Z,14.20
2023-10-10T20:18:22.477Z,14.10
2023-10-10T20:21:24.772Z,14.20
2023-10-10T20:24:08.651Z,14.10
2023-10-10T20:26:37.137Z,14.00
2023-10-10T20:38:22.327Z,13.60
2023-10-10T20:41:00.429Z,13.60
2023-10-10T20:43:42.280Z,13.50
2023-10-10T20:46:18.397Z,13.50
2023-10-10T20:49:01.374Z,13.50
2023-10-10T20:52:27.995Z,13.60
2023-10-10T20:55:15.037Z,13.50
2023-10-10T20:57:48.226Z,13.50
2023-10-10T21:00:35.981Z,13.40
2023-10-10T21:03:10.141Z,13.40
2023-10-10T21:05:46.309Z,13.30
2023-10-10T21:08:44.254Z,13.30
2023-10-10T21:11:14.282Z,13.20
2023-10-10T21:16:49.868Z,13.20
2023-10-10T21:19:16.786Z,13.20
2023-10-10T21:21:45.813Z,13.10
2023-10-10T21:24:12.604Z,13.00
2023-10-10T21:32:24.574Z,12.90
2023-10-10T21:34:54.878Z,12.90
2023-10-10T21:37:23.248Z,13.00
2023-10-10T21:39:50.947Z,12.90
2023-10-10T21:42:22.122Z,12.90
2023-10-10T21:44:56.179Z,12.90
2023-10-10T21:47:25.045Z,12.90
2023-10-10T21:49:54.312Z,12.80
2023-10-10T21:52:32.624Z,12.80
2023-10-10T21:55:06.666Z,12.80
2023-10-10T21:57:40.903Z,12.80
2023-10-10T22:00:16.757Z,12.80
2023-10-10T22:02:46.013Z,12.80
2023-10-10T22:05:18.606Z,12.80
2023-10-10T22:07:49.165Z,12.70
2023-10-10T22:10:23.355Z,12.70
2023-10-10T22:12:59.385Z,12.70
2023-10-10T22:15:27.646Z,12.60
2023-10-10T22:17:58.537Z,12.60
2023-10-10T22:20:29.643Z,12.60
2023-10-10T22:23:04.599Z,12.60
2023-10-10T22:25:34.171Z,12.60
2023-10-10T22:28:01.764Z,12.60
2023-10-10T22:30:39.063Z,12.60
2023-10-10T22:33:13.110Z,12.60
2023-10-10T22:35:40.021Z,12.50
2023-10-10T22:38:07.666Z,12.50
2023-10-10T22:40:38.108Z,12.40
2023-10-10T22:43:06.389Z,12.40
2023-10-10T22:45:38.159Z,12.50
2023-10-10T22:48:08.390Z,12.50
2023-10-10T22:50:35.978Z,12.40
2023-10-10T22:53:06.258Z,12.40
2023-10-10T22:55:33.878Z,12.40
2023-10-10T22:58:06.517Z,12.40
2023-10-10T23:00:42.581Z,12.40
2023-10-10T23:03:11.981Z,12.30
2023-10-10T23:05:42.295Z,12.30
2023-10-10T23:08:10.921Z,12.30
2023-10-10T23:10:40.603Z,12.20
2023-10-10T23:13:13.320Z,12.20
2023-10-10T23:15:40.643Z,12.20
2023-10-10T23:18:13.817Z,12.20
2023-10-10T23:20:45.340Z,12.20
2023-10-10T23:23:13.438Z,12.20
2023-10-10T23:25:43.712Z,12.30
2023-10-10T23:28:12.048Z,12.30
2023-10-10T23:30:41.225Z,12.20
2023-10-10T23:33:11.254Z,12.20
2023-10-10T23:35:38.732Z,12.20
2023-10-10T23:38:30.256Z,12.20
2023-10-10T23:40:59.106Z,12.20
2023-10-10T23:43:27.454Z,12.20
2023-10-10T23:46:00.853Z,12.20
2023-10-10T23:48:29.492Z,12.20
2023-10-10T23:50:58.237Z,12.30
2023-10-10T23:53:25.046Z,12.20
2023-10-10T23:55:59.391Z,12.20
2023-10-10T23:58:29.459Z,12.20
